Terminal Aerodrome Forecast
Issued by NWS

Home | Current Version | Previous Version | Text Only | Print | Product List | Glossary On
Versions: 1 2 3 4 5 6 7 8 9 10 11 12 13 14 15 16 17 18 19 20 21 22 23 24 25
000
FTUS41 KCTP 271742
TAFLNS
TAF
KLNS 271742Z 2718/2818 09005KT 6SM BR OVC005
     FM272000 20004KT 6SM HZ OVC015
     FM272200 21004KT P6SM SCT020 BKN050
     FM280300 00000KT 4SM BR OVC015
     FM280600 00000KT 2SM -SHRA BR OVC006=

USA.gov is the U.S. government's official web portal to all federal, state and local government web resources and services.